createdAt,value
2023-03-29T00:01:06.536Z,39.45
2023-03-29T00:03:35.081Z,39.39
2023-03-29T00:06:05.436Z,39.31
2023-03-29T00:08:35.024Z,39.48
2023-03-29T00:11:05.430Z,39.48
2023-03-29T00:13:34.330Z,39.43
2023-03-29T00:16:02.871Z,39.61
2023-03-29T00:18:31.367Z,39.61
2023-03-29T00:21:01.053Z,39.43
2023-03-29T00:23:29.691Z,39.42
2023-03-29T00:25:58.328Z,39.31
2023-03-29T00:28:28.127Z,39.47
2023-03-29T00:31:06.097Z,39.38
2023-03-29T00:33:35.249Z,39.56
2023-03-29T00:36:04.808Z,39.60
2023-03-29T00:38:33.856Z,39.61
2023-03-29T00:41:03.792Z,39.38
2023-03-29T00:43:59.087Z,39.51
2023-03-29T00:46:29.856Z,39.89
2023-03-29T00:49:04.506Z,39.50
2023-03-29T00:51:36.692Z,39.70
2023-03-29T00:54:08.592Z,39.68
2023-03-29T00:56:39.706Z,39.54
2023-03-29T00:59:13.734Z,39.76
2023-03-29T01:01:50.430Z,39.53
2023-03-29T01:04:24.926Z,39.71
2023-03-29T01:06:58.149Z,39.64
2023-03-29T01:09:30.232Z,39.70
2023-03-29T01:12:02.742Z,39.70
2023-03-29T01:14:36.778Z,39.77
2023-03-29T01:17:06.544Z,39.71
2023-03-29T01:19:39.981Z,39.78
2023-03-29T01:22:22.418Z,39.55
2023-03-29T01:25:06.040Z,39.53
2023-03-29T01:27:48.670Z,39.55
2023-03-29T01:30:22.386Z,39.56
2023-03-29T01:32:56.901Z,39.73
2023-03-29T01:35:32.483Z,39.71
2023-03-29T01:38:07.309Z,39.71
2023-03-29T01:40:36.177Z,39.72
2023-03-29T01:43:14.496Z,39.74
2023-03-29T01:45:48.825Z,39.84
2023-03-29T01:48:25.452Z,39.65
2023-03-29T01:51:00.064Z,39.46
2023-03-29T01:53:35.648Z,39.62
2023-03-29T01:56:08.645Z,39.72
2023-03-29T01:58:42.743Z,39.78
2023-03-29T02:01:17.706Z,39.55
2023-03-29T02:03:50.694Z,39.72
2023-03-29T02:06:24.662Z,39.71
2023-03-29T02:08:54.354Z,39.73
2023-03-29T02:11:24.516Z,39.60
2023-03-29T02:13:54.421Z,39.73
2023-03-29T02:16:23.203Z,39.81
2023-03-29T02:18:54.108Z,39.72
2023-03-29T02:21:27.671Z,39.60
2023-03-29T02:23:57.208Z,39.63
2023-03-29T02:26:26.293Z,39.71
2023-03-29T02:28:56.387Z,39.67
2023-03-29T02:31:30.277Z,39.63
2023-03-29T02:34:03.353Z,39.75
2023-03-29T02:36:40.416Z,39.78
2023-03-29T02:39:13.648Z,39.82
2023-03-29T02:41:45.294Z,39.79
2023-03-29T02:44:19.437Z,39.60
2023-03-29T02:46:51.394Z,39.65
2023-03-29T02:49:20.375Z,39.68
2023-03-29T02:51:52.589Z,39.85
2023-03-29T02:54:25.848Z,39.81
2023-03-29T02:56:58.913Z,39.81
2023-03-29T02:59:30.867Z,39.98
2023-03-29T03:01:59.442Z,39.85
2023-03-29T03:04:29.536Z,39.67
2023-03-29T03:06:58.079Z,39.76
2023-03-29T03:09:27.507Z,39.67
2023-03-29T03:11:56.153Z,39.86
2023-03-29T03:14:28.222Z,39.85
2023-03-29T03:16:59.085Z,39.95
2023-03-29T03:19:27.683Z,39.77
2023-03-29T03:21:56.895Z,39.88
2023-03-29T03:24:25.403Z,39.84
2023-03-29T03:26:54.471Z,39.85
2023-03-29T03:29:23.242Z,39.85
2023-03-29T03:32:12.329Z,39.89
2023-03-29T03:34:59.623Z,39.85
2023-03-29T03:37:29.568Z,39.78
2023-03-29T03:39:58.110Z,39.83
2023-03-29T03:42:28.788Z,40.02
2023-03-29T03:44:58.084Z,39.85
2023-03-29T03:47:46.830Z,39.83
2023-03-29T03:50:31.290Z,39.84
2023-03-29T03:52:59.886Z,39.69
2023-03-29T03:55:36.836Z,39.91
2023-03-29T03:58:12.623Z,40.02
2023-03-29T04:00:41.774Z,39.95
2023-03-29T04:03:26.042Z,39.96
2023-03-29T04:05:54.641Z,39.76
2023-03-29T04:08:27.212Z,39.98
2023-03-29T04:11:10.493Z,40.05
2023-03-29T04:13:42.277Z,39.57
2023-03-29T04:16:31.477Z,39.76
2023-03-29T04:19:12.899Z,39.81
2023-03-29T04:21:42.834Z,39.97
2023-03-29T04:24:11.321Z,39.74
2023-03-29T04:26:42.784Z,39.96
2023-03-29T04:29:18.933Z,39.80
2023-03-29T04:31:52.052Z,39.69
2023-03-29T04:34:38.426Z,39.85
2023-03-29T04:37:10.439Z,40.10
2023-03-29T04:39:39.278Z,40.84
2023-03-29T04:42:09.500Z,41.01
2023-03-29T04:44:38.048Z,41.33
2023-03-29T04:47:12.978Z,41.47
2023-03-29T04:49:56.077Z,41.23
2023-03-29T04:52:40.856Z,40.55
2023-03-29T04:55:10.337Z,40.64
2023-03-29T04:57:53.335Z,40.41
2023-03-29T05:00:27.445Z,40.97
2023-03-29T05:03:14.877Z,40.91
2023-03-29T05:06:06.566Z,40.94
2023-03-29T05:08:38.952Z,40.32
2023-03-29T05:11:27.605Z,40.41
2023-03-29T05:14:00.700Z,40.63
2023-03-29T05:16:30.686Z,39.74
2023-03-29T05:19:00.224Z,39.91
2023-03-29T05:21:30.246Z,39.87
2023-03-29T05:24:02.841Z,39.87
2023-03-29T05:26:51.785Z,39.97
2023-03-29T05:29:20.659Z,40.04
2023-03-29T05:31:55.598Z,40.30
2023-03-29T05:34:25.069Z,40.35
2023-03-29T05:36:59.107Z,40.20
2023-03-29T05:39:31.464Z,40.07
2023-03-29T05:42:00.933Z,39.65
2023-03-29T05:44:33.192Z,39.23
2023-03-29T05:47:11.322Z,39.17
2023-03-29T05:49:39.867Z,38.72
2023-03-29T05:52:16.077Z,38.56
2023-03-29T05:54:44.834Z,37.78
2023-03-29T05:57:14.016Z,37.30
2023-03-29T05:59:42.836Z,37.24
2023-03-29T06:02:12.592Z,37.75
2023-03-29T06:04:46.759Z,38.05
2023-03-29T06:07:25.502Z,38.27
2023-03-29T06:10:23.492Z,37.95
2023-03-29T06:12:57.602Z,38.55
2023-03-29T06:15:26.893Z,38.25
2023-03-29T06:20:30.320Z,38.80
2023-03-29T06:23:06.179Z,38.41
2023-03-29T06:25:35.261Z,38.85
2023-03-29T06:28:03.966Z,38.46
2023-03-29T06:30:32.866Z,38.52
2023-03-29T06:33:02.252Z,38.72
2023-03-29T06:35:49.406Z,38.05
2023-03-29T06:38:23.304Z,37.53
2023-03-29T06:41:05.208Z,36.80
2023-03-29T06:43:54.965Z,37.02
2023-03-29T06:46:27.056Z,37.21
2023-03-29T06:48:58.077Z,37.12
2023-03-29T06:51:34.636Z,37.02
2023-03-29T06:54:05.350Z,37.01
2023-03-29T06:56:34.201Z,36.96
2023-03-29T06:59:09.252Z,37.09
2023-03-29T07:01:49.187Z,37.73
2023-03-29T07:04:27.678Z,37.80
2023-03-29T07:07:24.219Z,37.58
2023-03-29T07:10:10.448Z,37.50
2023-03-29T07:12:57.474Z,37.74
2023-03-29T07:15:27.564Z,37.90
2023-03-29T07:18:22.149Z,37.55
2023-03-29T07:20:52.139Z,37.80
2023-03-29T07:23:21.348Z,37.40
2023-03-29T07:25:54.066Z,37.66
2023-03-29T07:28:22.747Z,37.65
2023-03-29T07:30:54.954Z,36.95
2023-03-29T07:33:24.284Z,36.88
2023-03-29T07:36:06.937Z,37.22
2023-03-29T07:38:36.800Z,37.37
2023-03-29T07:41:12.886Z,37.94
2023-03-29T07:44:04.850Z,37.55
2023-03-29T07:46:33.409Z,37.89
2023-03-29T07:49:01.933Z,38.06
2023-03-29T07:51:31.054Z,38.18
2023-03-29T07:54:06.298Z,37.89
2023-03-29T07:56:54.679Z,37.99
2023-03-29T07:59:30.944Z,38.13
2023-03-29T08:02:16.465Z,38.20
2023-03-29T08:04:50.687Z,38.53
2023-03-29T08:07:21.037Z,38.53
2023-03-29T08:10:10.695Z,38.58
2023-03-29T08:13:16.248Z,38.82
2023-03-29T08:16:11.220Z,38.53
2023-03-29T08:18:45.863Z,38.44
2023-03-29T08:21:15.866Z,38.78
2023-03-29T08:23:48.472Z,38.57
2023-03-29T08:26:27.730Z,38.69
2023-03-29T08:28:59.533Z,38.34
2023-03-29T08:31:29.382Z,38.27
2023-03-29T08:33:58.037Z,38.11
2023-03-29T08:36:55.707Z,38.35
2023-03-29T08:39:35.001Z,38.44
2023-03-29T08:42:35.403Z,38.71
2023-03-29T08:45:14.638Z,38.46
2023-03-29T08:47:53.634Z,38.28
2023-03-29T08:50:33.710Z,38.67
2023-03-29T08:53:07.742Z,38.67
2023-03-29T08:55:58.383Z,39.05
2023-03-29T08:58:52.639Z,38.88
2023-03-29T09:01:24.418Z,38.85
2023-03-29T09:04:05.740Z,38.75
2023-03-29T09:06:55.041Z,38.70
2023-03-29T09:09:32.762Z,38.77
2023-03-29T09:12:20.053Z,38.78
2023-03-29T09:15:00.808Z,39.06
2023-03-29T09:17:40.193Z,38.96
2023-03-29T09:20:24.442Z,38.88
2023-03-29T09:23:03.294Z,38.67
2023-03-29T09:25:54.074Z,39.01
2023-03-29T09:28:36.988Z,38.74
2023-03-29T09:31:07.833Z,39.24
2023-03-29T09:33:42.946Z,39.55
2023-03-29T09:36:23.988Z,39.25
2023-03-29T09:38:55.558Z,39.07
2023-03-29T09:41:31.584Z,39.05
2023-03-29T09:44:12.709Z,39.09
2023-03-29T09:46:54.211Z,39.00
2023-03-29T09:49:31.104Z,39.38
2023-03-29T09:52:05.787Z,39.25
2023-03-29T09:54:34.498Z,39.00
2023-03-29T09:57:21.589Z,38.89
2023-03-29T09:59:52.500Z,38.82
2023-03-29T10:02:22.135Z,38.72
2023-03-29T10:04:58.703Z,39.03
2023-03-29T10:07:36.001Z,38.79
2023-03-29T10:10:10.444Z,38.55
2023-03-29T10:12:42.593Z,38.83
2023-03-29T10:15:26.818Z,38.51
2023-03-29T10:18:00.674Z,38.91
2023-03-29T10:20:30.989Z,39.23
2023-03-29T10:23:00.711Z,39.23
2023-03-29T10:25:31.703Z,39.28
2023-03-29T10:28:06.953Z,39.58
2023-03-29T10:30:38.532Z,39.52
2023-03-29T10:33:16.107Z,39.48
2023-03-29T10:35:48.879Z,39.49
2023-03-29T10:38:19.715Z,39.72
2023-03-29T10:40:50.300Z,39.86
2023-03-29T10:43:23.392Z,39.95
2023-03-29T10:45:53.746Z,39.99
2023-03-29T10:48:26.485Z,40.04
2023-03-29T10:50:59.847Z,40.48
2023-03-29T10:53:32.409Z,39.98
2023-03-29T10:56:25.491Z,40.39
2023-03-29T10:59:18.295Z,40.65
2023-03-29T11:01:53.743Z,40.67
2023-03-29T11:04:29.449Z,40.79
2023-03-29T11:07:19.672Z,40.59
2023-03-29T11:09:56.139Z,40.73
2023-03-29T11:12:32.345Z,40.53
2023-03-29T11:15:19.525Z,40.80
2023-03-29T11:18:03.346Z,40.41
2023-03-29T11:20:41.816Z,40.64
2023-03-29T11:23:25.439Z,40.53
2023-03-29T11:26:03.981Z,41.06
2023-03-29T11:28:42.270Z,40.76
2023-03-29T11:31:20.194Z,40.94
2023-03-29T11:33:57.555Z,40.45
2023-03-29T11:36:32.891Z,40.82
2023-03-29T11:39:13.186Z,40.46
2023-03-29T11:41:45.188Z,40.50
2023-03-29T11:44:18.783Z,40.61
2023-03-29T11:46:53.148Z,40.48
2023-03-29T11:49:27.736Z,40.65
2023-03-29T11:52:03.134Z,40.54
2023-03-29T11:54:39.526Z,40.29
2023-03-29T11:57:15.461Z,40.59
2023-03-29T11:59:55.365Z,40.67
2023-03-29T12:02:29.490Z,40.49
2023-03-29T12:05:03.343Z,40.35
2023-03-29T12:07:36.753Z,40.42
2023-03-29T12:10:15.540Z,40.61
2023-03-29T12:12:56.151Z,40.40
2023-03-29T12:15:26.896Z,40.78
2023-03-29T12:18:06.977Z,40.44
2023-03-29T12:20:39.702Z,40.68
2023-03-29T12:23:15.722Z,40.88
2023-03-29T12:25:54.170Z,40.82
2023-03-29T12:28:34.439Z,41.02
2023-03-29T12:31:12.910Z,40.74
2023-03-29T12:34:07.056Z,40.72
2023-03-29T12:37:07.505Z,41.06
2023-03-29T12:39:48.810Z,40.92
2023-03-29T12:42:46.153Z,40.90
2023-03-29T12:45:35.623Z,41.28
2023-03-29T12:48:05.053Z,41.44
2023-03-29T12:50:35.984Z,41.34
2023-03-29T12:53:07.436Z,41.41
2023-03-29T12:55:49.494Z,41.34
2023-03-29T12:58:42.914Z,41.31
2023-03-29T13:01:24.037Z,41.49
2023-03-29T13:03:58.291Z,41.02
2023-03-29T13:06:32.654Z,41.50
2023-03-29T13:09:03.612Z,41.07
2023-03-29T13:11:39.922Z,41.12
2023-03-29T13:14:15.610Z,41.74
2023-03-29T13:16:44.243Z,41.07
2023-03-29T13:19:30.506Z,40.92
2023-03-29T13:22:10.647Z,40.96
2023-03-29T13:24:50.386Z,41.13
2023-03-29T13:27:30.308Z,41.17
2023-03-29T13:30:16.646Z,41.28
2023-03-29T13:32:52.503Z,41.06
2023-03-29T13:35:31.963Z,41.05
2023-03-29T13:38:11.039Z,41.19
2023-03-29T13:40:46.891Z,41.29
2023-03-29T13:43:30.940Z,41.15
2023-03-29T13:46:21.071Z,41.03
2023-03-29T13:49:04.783Z,41.52
2023-03-29T13:51:37.999Z,41.50
2023-03-29T13:54:23.059Z,41.28
2023-03-29T13:57:01.384Z,41.66
2023-03-29T13:59:36.426Z,42.22
2023-03-29T14:02:07.419Z,41.85
2023-03-29T14:04:42.132Z,42.08
2023-03-29T14:07:15.436Z,41.76
2023-03-29T14:09:46.481Z,42.13
2023-03-29T14:12:15.981Z,41.82
2023-03-29T14:14:58.407Z,41.75
2023-03-29T14:17:29.554Z,41.77
2023-03-29T14:19:59.449Z,41.42
2023-03-29T14:22:33.762Z,40.11
2023-03-29T14:25:06.352Z,39.82
2023-03-29T14:27:37.748Z,40.37
2023-03-29T14:30:21.545Z,40.52
2023-03-29T14:32:52.433Z,40.85
2023-03-29T14:35:30.149Z,40.77
2023-03-29T14:37:59.972Z,40.92
2023-03-29T14:40:28.596Z,41.19
2023-03-29T14:42:57.170Z,41.33
2023-03-29T14:45:26.276Z,41.08
2023-03-29T14:47:56.378Z,41.26
2023-03-29T14:50:28.400Z,41.46
2023-03-29T14:52:58.586Z,41.67
2023-03-29T14:55:27.460Z,41.66
2023-03-29T14:57:56.940Z,41.52
2023-03-29T15:00:30.109Z,41.90
2023-03-29T15:03:02.563Z,41.70
2023-03-29T15:05:38.552Z,41.85
2023-03-29T15:08:11.594Z,41.93
2023-03-29T15:10:42.977Z,41.63
2023-03-29T15:13:19.755Z,41.81
2023-03-29T15:15:52.433Z,41.89
2023-03-29T15:18:28.216Z,42.13
2023-03-29T15:20:56.873Z,42.28
2023-03-29T15:23:26.504Z,42.35
2023-03-29T15:25:58.326Z,42.38
2023-03-29T15:28:30.974Z,42.21
2023-03-29T15:31:07.643Z,42.33
2023-03-29T15:33:40.394Z,42.64
2023-03-29T15:36:11.031Z,42.97
2023-03-29T15:38:44.570Z,42.68
2023-03-29T15:41:14.560Z,42.68
2023-03-29T15:43:43.926Z,42.75
2023-03-29T15:46:14.112Z,42.70
2023-03-29T15:48:44.238Z,42.98
2023-03-29T15:51:13.454Z,42.61
2023-03-29T15:53:42.760Z,42.95
2023-03-29T15:56:17.155Z,42.98
2023-03-29T15:58:46.491Z,44.02
2023-03-29T16:01:34.259Z,43.79
2023-03-29T16:04:05.430Z,43.65
2023-03-29T16:06:36.062Z,44.19
2023-03-29T16:09:06.173Z,43.44
2023-03-29T16:11:35.299Z,43.16
2023-03-29T16:14:03.984Z,42.67
2023-03-29T16:16:32.646Z,43.46
2023-03-29T16:19:01.110Z,43.58
2023-03-29T16:21:30.958Z,43.42
2023-03-29T16:23:59.453Z,42.82
2023-03-29T16:26:28.026Z,43.12
2023-03-29T16:28:56.430Z,43.48
2023-03-29T16:31:26.927Z,43.64
2023-03-29T16:33:55.762Z,43.37
2023-03-29T16:36:24.240Z,43.55
2023-03-29T16:38:54.427Z,43.31
2023-03-29T16:41:23.079Z,43.34
2023-03-29T16:43:51.573Z,43.86
2023-03-29T16:46:20.861Z,43.72
2023-03-29T16:48:51.361Z,43.84
2023-03-29T16:51:20.054Z,43.91
2023-03-29T16:53:49.112Z,43.86
2023-03-29T16:56:19.819Z,43.93
2023-03-29T16:58:48.293Z,43.46
2023-03-29T17:01:17.734Z,43.45
2023-03-29T17:03:46.177Z,43.88
2023-03-29T17:06:14.785Z,43.97
2023-03-29T17:08:43.394Z,43.86
2023-03-29T17:11:13.047Z,43.85
2023-03-29T17:13:43.421Z,43.93
2023-03-29T17:16:11.937Z,43.87
2023-03-29T17:18:40.366Z,44.37
2023-03-29T17:21:09.177Z,45.65
2023-03-29T17:23:37.642Z,44.93
2023-03-29T17:26:07.000Z,44.79
2023-03-29T17:28:36.093Z,45.82
2023-03-29T17:31:08.126Z,45.50
2023-03-29T17:33:36.875Z,44.83
2023-03-29T17:36:07.317Z,44.77
2023-03-29T17:38:37.917Z,44.42
2023-03-29T17:41:06.996Z,44.40
2023-03-29T17:43:35.599Z,44.18
2023-03-29T17:46:04.532Z,44.46
2023-03-29T17:48:34.928Z,44.16
2023-03-29T17:51:03.432Z,44.38
2023-03-29T17:53:31.979Z,44.68
2023-03-29T17:56:00.859Z,44.82
2023-03-29T17:58:29.473Z,45.04
2023-03-29T18:00:58.006Z,44.83
2023-03-29T18:03:27.079Z,44.69
2023-03-29T18:05:57.294Z,44.67
2023-03-29T18:08:25.862Z,44.54
2023-03-29T18:10:54.308Z,44.75
2023-03-29T18:13:25.338Z,44.50
2023-03-29T18:15:56.428Z,44.46
2023-03-29T18:18:24.982Z,44.53
2023-03-29T18:20:53.573Z,44.61
2023-03-29T18:23:23.375Z,44.43
2023-03-29T18:25:52.117Z,45.23
2023-03-29T18:28:20.610Z,45.83
2023-03-29T18:30:51.558Z,45.87
2023-03-29T18:33:20.066Z,46.03
2023-03-29T18:35:50.509Z,45.44
2023-03-29T18:38:20.895Z,46.23
2023-03-29T18:40:51.509Z,46.45
2023-03-29T18:43:20.045Z,46.47
2023-03-29T18:45:48.761Z,46.32
2023-03-29T18:48:17.297Z,46.65
2023-03-29T18:50:46.428Z,46.47
2023-03-29T18:53:15.498Z,46.70
2023-03-29T18:55:44.525Z,46.62
2023-03-29T18:58:15.959Z,46.58
2023-03-29T19:00:44.729Z,46.71
2023-03-29T19:03:13.536Z,46.96
2023-03-29T19:05:42.345Z,46.93
2023-03-29T19:08:11.139Z,46.77
2023-03-29T19:10:40.477Z,46.65
2023-03-29T19:13:08.988Z,46.65
2023-03-29T19:15:40.441Z,47.02
2023-03-29T19:18:09.089Z,46.89
2023-03-29T19:20:38.362Z,47.00
2023-03-29T19:23:06.825Z,47.01
2023-03-29T19:25:35.355Z,47.06
2023-03-29T19:28:04.930Z,47.36
2023-03-29T19:30:36.472Z,47.20
2023-03-29T19:33:06.311Z,47.19
2023-03-29T19:35:35.097Z,47.00
2023-03-29T19:38:03.755Z,46.96
2023-03-29T19:40:32.267Z,47.39
2023-03-29T19:43:00.822Z,47.24
2023-03-29T19:45:29.460Z,47.28
2023-03-29T19:48:02.942Z,47.33
2023-03-29T19:50:33.481Z,46.99
2023-03-29T19:53:01.880Z,46.59
2023-03-29T19:55:30.366Z,46.58
2023-03-29T19:57:58.950Z,46.39
2023-03-29T20:00:27.550Z,46.39
2023-03-29T20:02:56.533Z,46.42
2023-03-29T20:05:25.069Z,46.41
2023-03-29T20:07:55.374Z,46.53
2023-03-29T20:10:23.902Z,46.29
2023-03-29T20:12:52.407Z,46.44
2023-03-29T20:15:20.850Z,46.33
2023-03-29T20:17:51.308Z,46.52
2023-03-29T20:20:21.196Z,46.39
2023-03-29T20:22:49.693Z,46.13
2023-03-29T20:25:19.604Z,46.42
2023-03-29T20:27:49.334Z,46.42
2023-03-29T20:30:18.274Z,46.23
2023-03-29T20:32:47.180Z,46.29
2023-03-29T20:35:16.462Z,46.23
2023-03-29T20:37:44.973Z,46.37
2023-03-29T20:40:15.517Z,46.25
2023-03-29T20:42:46.263Z,46.38
2023-03-29T20:45:19.271Z,46.16
2023-03-29T20:47:57.405Z,46.21
2023-03-29T20:50:29.620Z,46.46
2023-03-29T20:53:03.743Z,46.15
2023-03-29T20:55:33.063Z,46.08
2023-03-29T20:58:03.506Z,46.23
2023-03-29T21:00:35.367Z,45.94
2023-03-29T21:03:04.524Z,46.18
2023-03-29T21:05:34.122Z,46.44
2023-03-29T21:08:04.220Z,46.13
2023-03-29T21:10:32.902Z,46.34
2023-03-29T21:13:03.068Z,46.30
2023-03-29T21:15:31.909Z,46.54
2023-03-29T21:18:00.592Z,46.03
2023-03-29T21:20:29.166Z,46.21
2023-03-29T21:22:57.815Z,45.97
2023-03-29T21:25:26.281Z,45.95
2023-03-29T21:27:54.714Z,46.20
2023-03-29T21:30:24.506Z,46.21
2023-03-29T21:32:52.940Z,46.04
2023-03-29T21:35:21.466Z,46.16
2023-03-29T21:37:49.889Z,46.18
2023-03-29T21:40:18.345Z,45.92
2023-03-29T21:42:46.767Z,46.16
2023-03-29T21:45:15.467Z,46.01
2023-03-29T21:47:45.366Z,46.07
2023-03-29T21:50:14.110Z,46.20
2023-03-29T21:52:42.533Z,45.98
2023-03-29T21:55:10.986Z,46.23
2023-03-29T21:57:39.418Z,46.16
2023-03-29T22:00:12.611Z,46.15
2023-03-29T22:02:42.302Z,45.93
2023-03-29T22:05:12.749Z,46.27
2023-03-29T22:07:41.100Z,45.88
2023-03-29T22:10:12.267Z,46.18
2023-03-29T22:12:41.354Z,46.00
2023-03-29T22:15:12.343Z,46.29
2023-03-29T22:17:41.359Z,45.76
2023-03-29T22:20:13.780Z,46.08
2023-03-29T22:22:46.196Z,46.02
2023-03-29T22:25:14.755Z,46.11
2023-03-29T22:27:43.873Z,46.07
2023-03-29T22:30:13.634Z,46.13
2023-03-29T22:32:42.355Z,45.89
2023-03-29T22:35:12.469Z,45.99
2023-03-29T22:37:42.563Z,46.11
2023-03-29T22:40:13.107Z,46.11
2023-03-29T22:42:41.574Z,45.80
2023-03-29T22:45:11.043Z,46.05
2023-03-29T22:47:39.475Z,46.03
2023-03-29T22:50:08.945Z,46.06
2023-03-29T22:52:38.790Z,46.08
2023-03-29T22:55:08.436Z,46.13
2023-03-29T22:57:36.810Z,46.11
2023-03-29T23:00:09.036Z,45.92
2023-03-29T23:02:38.190Z,45.82
2023-03-29T23:05:07.624Z,45.74
2023-03-29T23:07:36.940Z,45.92
2023-03-29T23:10:08.353Z,46.05
2023-03-29T23:12:37.120Z,45.79
2023-03-29T23:15:08.049Z,46.06
2023-03-29T23:17:37.074Z,45.72
2023-03-29T23:20:06.884Z,45.84
2023-03-29T23:22:36.312Z,45.93
2023-03-29T23:25:05.464Z,46.05
2023-03-29T23:27:35.496Z,46.05
2023-03-29T23:30:04.111Z,45.92
2023-03-29T23:32:32.649Z,45.75
2023-03-29T23:35:01.301Z,45.75
2023-03-29T23:37:29.804Z,45.84
2023-03-29T23:39:58.326Z,45.90
2023-03-29T23:42:26.764Z,45.68
2023-03-29T23:44:56.563Z,45.99
2023-03-29T23:47:26.991Z,45.94
2023-03-29T23:49:55.773Z,45.74
2023-03-29T23:52:24.141Z,46.01
2023-03-29T23:54:52.527Z,45.86
2023-03-29T23:57:21.342Z,45.85
2023-03-29T23:59:52.660Z,45.69
